LIBQ  Monte Scuro  Airport

Italy

Add Bookmark
Status
Operational
Latitude Longitude
39° 19' 12" N 16° 22' 47" E
39.320000 16.380000
Local (DST + 2) UTC (GMT + 1)
Mar 27, 2015 04:37 Mar 27, 2015 15:37
Sunrise-Sunset Local UTC
Begin Civil Twilight 05:18 04:18
Sunrise 05:45 04:45
Sunset 06:14 17:14
End Civil Twilight 06:41 17:41

Current Weather

METAR Observed LIFR
LIBQ 271455Z 30008KT 0000 -RA FG VV/// 03/02 Q0999 Fri, Mar 27, 2015 @ 14:55 UTC
(42 Minutes ago)
Low Instrument Flight Rules
Wind Visibility Clouds Conditions
300° at 8 knots (15 kph) Less than 50 metres
  • Light Rain
  • Fog
Temperatures Readings Precipitation
Current Temp 3°C (37°F)
Dewpoint 2°C (36°F)
Humidity 93%
Altimeter 29.5"Hg
Sea Level Pressure 999mb
Field Elevation 5643.04'
None Recorded

Additional weather within a 92.6km radius of LIBQ

Map ICAO Location
LICA 47.6km S (195°)
LIBC 70.2km E (121°)

24 Hour Weather History

Loading
-

24 Hour Weather Graphs

Loading
-

CheckWX.com is intended as a tool to help pilots better visualize weather data. It is not intended as a substitute for an official weather briefing obtained from a Flight Service Station. CheckWX.com does not meet the FAA requirements for an official pre-flight weather briefing. Therefore, it's important that pilots still call and obtain an official FSS pre-flight weather briefing.